sensor_id;sensor_type;location;lat;lon;timestamp;P1;durP1;ratioP1;P2;durP2;ratioP2
11541;SDS011;5827;49.482;7.716;2023-04-06T00:01:12;6.97;;;5.90;;
11541;SDS011;5827;49.482;7.716;2023-04-06T00:03:14;7.13;;;5.87;;
11541;SDS011;5827;49.482;7.716;2023-04-06T00:05:16;8.43;;;6.50;;
11541;SDS011;5827;49.482;7.716;2023-04-06T00:07:18;8.30;;;6.33;;
11541;SDS011;5827;49.482;7.716;2023-04-06T00:09:20;8.40;;;6.43;;
11541;SDS011;5827;49.482;7.716;2023-04-06T00:11:21;10.27;;;6.17;;
11541;SDS011;5827;49.482;7.716;2023-04-06T00:13:23;8.93;;;6.20;;
11541;SDS011;5827;49.482;7.716;2023-04-06T00:15:25;7.50;;;6.43;;
11541;SDS011;5827;49.482;7.716;2023-04-06T00:17:25;7.43;;;6.00;;
11541;SDS011;5827;49.482;7.716;2023-04-06T00:19:27;9.03;;;6.23;;
11541;SDS011;5827;49.482;7.716;2023-04-06T00:21:28;9.27;;;6.57;;
11541;SDS011;5827;49.482;7.716;2023-04-06T00:23:32;11.70;;;6.57;;
11541;SDS011;5827;49.482;7.716;2023-04-06T00:25:33;8.47;;;6.10;;
11541;SDS011;5827;49.482;7.716;2023-04-06T00:27:38;8.27;;;6.40;;
11541;SDS011;5827;49.482;7.716;2023-04-06T00:29:39;7.97;;;6.03;;
11541;SDS011;5827;49.482;7.716;2023-04-06T00:31:41;9.60;;;6.60;;
11541;SDS011;5827;49.482;7.716;2023-04-06T00:33:43;8.63;;;5.80;;
11541;SDS011;5827;49.482;7.716;2023-04-06T00:35:45;8.07;;;5.83;;
11541;SDS011;5827;49.482;7.716;2023-04-06T00:37:46;8.63;;;5.93;;
11541;SDS011;5827;49.482;7.716;2023-04-06T00:39:50;6.90;;;5.97;;
11541;SDS011;5827;49.482;7.716;2023-04-06T00:41:52;6.87;;;6.10;;
11541;SDS011;5827;49.482;7.716;2023-04-06T00:43:54;6.50;;;5.37;;
11541;SDS011;5827;49.482;7.716;2023-04-06T00:45:55;8.23;;;6.30;;
11541;SDS011;5827;49.482;7.716;2023-04-06T00:47:57;7.70;;;5.47;;
11541;SDS011;5827;49.482;7.716;2023-04-06T00:49:58;7.83;;;6.30;;
11541;SDS011;5827;49.482;7.716;2023-04-06T00:52:00;7.77;;;5.90;;
11541;SDS011;5827;49.482;7.716;2023-04-06T00:54:02;7.43;;;6.20;;
11541;SDS011;5827;49.482;7.716;2023-04-06T00:56:05;8.10;;;6.13;;
11541;SDS011;5827;49.482;7.716;2023-04-06T00:58:09;7.23;;;6.27;;
11541;SDS011;5827;49.482;7.716;2023-04-06T01:00:11;8.47;;;6.23;;
11541;SDS011;5827;49.482;7.716;2023-04-06T01:02:14;10.00;;;5.90;;
11541;SDS011;5827;49.482;7.716;2023-04-06T01:04:16;9.27;;;6.50;;
11541;SDS011;5827;49.482;7.716;2023-04-06T01:06:17;8.00;;;6.10;;
11541;SDS011;5827;49.482;7.716;2023-04-06T01:08:19;7.17;;;5.10;;
11541;SDS011;5827;49.482;7.716;2023-04-06T01:10:24;8.40;;;5.60;;
11541;SDS011;5827;49.482;7.716;2023-04-06T01:12:27;8.50;;;5.77;;
11541;SDS011;5827;49.482;7.716;2023-04-06T01:14:28;6.90;;;5.77;;
11541;SDS011;5827;49.482;7.716;2023-04-06T01:16:30;7.97;;;5.87;;
11541;SDS011;5827;49.482;7.716;2023-04-06T01:18:31;9.27;;;6.00;;
11541;SDS011;5827;49.482;7.716;2023-04-06T01:20:32;8.43;;;5.73;;
11541;SDS011;5827;49.482;7.716;2023-04-06T01:22:35;9.07;;;6.20;;
11541;SDS011;5827;49.482;7.716;2023-04-06T01:24:36;9.40;;;6.13;;
11541;SDS011;5827;49.482;7.716;2023-04-06T01:26:38;9.17;;;6.60;;
11541;SDS011;5827;49.482;7.716;2023-04-06T01:28:39;9.43;;;6.20;;
11541;SDS011;5827;49.482;7.716;2023-04-06T01:30:41;7.20;;;6.23;;
11541;SDS011;5827;49.482;7.716;2023-04-06T01:32:42;8.30;;;6.80;;
11541;SDS011;5827;49.482;7.716;2023-04-06T01:34:44;7.50;;;6.20;;
11541;SDS011;5827;49.482;7.716;2023-04-06T01:36:46;9.17;;;6.03;;
11541;SDS011;5827;49.482;7.716;2023-04-06T01:38:49;8.23;;;6.60;;
11541;SDS011;5827;49.482;7.716;2023-04-06T01:40:50;6.50;;;5.87;;
11541;SDS011;5827;49.482;7.716;2023-04-06T01:42:51;7.73;;;5.73;;
11541;SDS011;5827;49.482;7.716;2023-04-06T01:44:53;9.37;;;6.37;;
11541;SDS011;5827;49.482;7.716;2023-04-06T01:46:55;7.60;;;6.07;;
11541;SDS011;5827;49.482;7.716;2023-04-06T01:48:56;8.50;;;5.80;;
11541;SDS011;5827;49.482;7.716;2023-04-06T01:50:57;7.67;;;5.47;;
11541;SDS011;5827;49.482;7.716;2023-04-06T01:52:59;6.07;;;5.47;;
11541;SDS011;5827;49.482;7.716;2023-04-06T01:55:02;7.10;;;5.57;;
11541;SDS011;5827;49.482;7.716;2023-04-06T01:57:04;7.50;;;6.17;;
11541;SDS011;5827;49.482;7.716;2023-04-06T01:59:05;8.13;;;6.17;;
11541;SDS011;5827;49.482;7.716;2023-04-06T02:01:07;8.43;;;5.80;;
11541;SDS011;5827;49.482;7.716;2023-04-06T02:03:08;6.90;;;5.50;;
11541;SDS011;5827;49.482;7.716;2023-04-06T02:05:10;6.97;;;5.23;;
11541;SDS011;5827;49.482;7.716;2023-04-06T02:07:11;7.43;;;5.83;;
11541;SDS011;5827;49.482;7.716;2023-04-06T02:09:13;7.53;;;6.23;;
11541;SDS011;5827;49.482;7.716;2023-04-06T02:11:17;7.63;;;5.77;;
11541;SDS011;5827;49.482;7.716;2023-04-06T02:13:18;7.13;;;5.70;;
11541;SDS011;5827;49.482;7.716;2023-04-06T02:15:19;7.80;;;5.40;;
11541;SDS011;5827;49.482;7.716;2023-04-06T02:17:21;5.77;;;5.17;;
11541;SDS011;5827;49.482;7.716;2023-04-06T02:19:22;8.70;;;6.40;;
11541;SDS011;5827;49.482;7.716;2023-04-06T02:21:24;7.37;;;6.10;;
11541;SDS011;5827;49.482;7.716;2023-04-06T02:23:25;8.07;;;6.30;;
11541;SDS011;5827;49.482;7.716;2023-04-06T02:25:27;7.00;;;5.77;;
11541;SDS011;5827;49.482;7.716;2023-04-06T02:27:30;8.67;;;5.40;;
11541;SDS011;5827;49.482;7.716;2023-04-06T02:29:31;8.80;;;5.73;;
11541;SDS011;5827;49.482;7.716;2023-04-06T02:31:33;7.33;;;5.80;;
11541;SDS011;5827;49.482;7.716;2023-04-06T02:33:34;8.13;;;5.60;;
11541;SDS011;5827;49.482;7.716;2023-04-06T02:35:36;7.73;;;6.00;;
11541;SDS011;5827;49.482;7.716;2023-04-06T02:37:37;8.07;;;5.87;;
11541;SDS011;5827;49.482;7.716;2023-04-06T02:39:39;7.80;;;5.47;;
11541;SDS011;5827;49.482;7.716;2023-04-06T02:41:40;7.43;;;6.20;;
11541;SDS011;5827;49.482;7.716;2023-04-06T02:43:43;7.20;;;5.40;;
11541;SDS011;5827;49.482;7.716;2023-04-06T02:45:44;9.07;;;6.03;;
11541;SDS011;5827;49.482;7.716;2023-04-06T02:47:46;6.87;;;5.93;;
11541;SDS011;5827;49.482;7.716;2023-04-06T02:49:47;6.43;;;5.37;;
11541;SDS011;5827;49.482;7.716;2023-04-06T02:51:49;6.27;;;5.63;;
11541;SDS011;5827;49.482;7.716;2023-04-06T02:53:50;7.57;;;6.03;;
11541;SDS011;5827;49.482;7.716;2023-04-06T02:55:52;8.03;;;5.90;;
11541;SDS011;5827;49.482;7.716;2023-04-06T02:57:53;6.57;;;5.87;;
11541;SDS011;5827;49.482;7.716;2023-04-06T02:59:56;7.67;;;5.83;;
11541;SDS011;5827;49.482;7.716;2023-04-06T03:01:58;8.57;;;6.50;;
11541;SDS011;5827;49.482;7.716;2023-04-06T03:03:59;7.37;;;5.80;;
11541;SDS011;5827;49.482;7.716;2023-04-06T03:06:01;9.57;;;6.13;;
11541;SDS011;5827;49.482;7.716;2023-04-06T03:08:03;8.90;;;6.27;;
11541;SDS011;5827;49.482;7.716;2023-04-06T03:10:05;7.67;;;6.60;;
11541;SDS011;5827;49.482;7.716;2023-04-06T03:12:07;8.07;;;5.77;;
11541;SDS011;5827;49.482;7.716;2023-04-06T03:14:09;8.77;;;6.20;;
11541;SDS011;5827;49.482;7.716;2023-04-06T03:16:11;9.43;;;5.80;;
11541;SDS011;5827;49.482;7.716;2023-04-06T03:18:13;8.33;;;6.27;;
11541;SDS011;5827;49.482;7.716;2023-04-06T03:20:15;9.00;;;6.70;;
11541;SDS011;5827;49.482;7.716;2023-04-06T03:22:16;9.77;;;6.67;;
11541;SDS011;5827;49.482;7.716;2023-04-06T03:24:18;10.00;;;6.40;;
11541;SDS011;5827;49.482;7.716;2023-04-06T03:26:19;9.30;;;6.53;;
11541;SDS011;5827;49.482;7.716;2023-04-06T03:28:22;8.43;;;6.07;;
11541;SDS011;5827;49.482;7.716;2023-04-06T03:30:23;8.57;;;6.40;;
11541;SDS011;5827;49.482;7.716;2023-04-06T03:32:27;8.57;;;6.23;;
11541;SDS011;5827;49.482;7.716;2023-04-06T03:34:29;7.63;;;6.17;;
11541;SDS011;5827;49.482;7.716;2023-04-06T03:36:30;9.43;;;6.90;;
11541;SDS011;5827;49.482;7.716;2023-04-06T03:38:32;9.07;;;6.37;;
11541;SDS011;5827;49.482;7.716;2023-04-06T03:40:33;11.17;;;6.80;;
11541;SDS011;5827;49.482;7.716;2023-04-06T03:42:35;9.00;;;7.13;;
11541;SDS011;5827;49.482;7.716;2023-04-06T03:44:36;8.80;;;6.37;;
11541;SDS011;5827;49.482;7.716;2023-04-06T03:46:38;9.63;;;7.37;;
11541;SDS011;5827;49.482;7.716;2023-04-06T03:48:41;8.40;;;6.90;;
11541;SDS011;5827;49.482;7.716;2023-04-06T03:50:43;9.60;;;7.40;;
11541;SDS011;5827;49.482;7.716;2023-04-06T03:52:44;9.47;;;7.03;;
11541;SDS011;5827;49.482;7.716;2023-04-06T03:54:46;10.67;;;6.83;;
11541;SDS011;5827;49.482;7.716;2023-04-06T03:56:47;8.97;;;7.30;;
11541;SDS011;5827;49.482;7.716;2023-04-06T03:58:49;9.67;;;6.77;;
11541;SDS011;5827;49.482;7.716;2023-04-06T04:00:50;9.53;;;7.93;;
11541;SDS011;5827;49.482;7.716;2023-04-06T04:02:52;8.87;;;7.67;;
11541;SDS011;5827;49.482;7.716;2023-04-06T04:04:54;9.67;;;7.53;;
11541;SDS011;5827;49.482;7.716;2023-04-06T04:06:56;9.00;;;7.13;;
11541;SDS011;5827;49.482;7.716;2023-04-06T04:08:57;8.40;;;6.80;;
11541;SDS011;5827;49.482;7.716;2023-04-06T04:10:59;9.57;;;7.20;;
11541;SDS011;5827;49.482;7.716;2023-04-06T04:13:00;7.13;;;5.90;;
11541;SDS011;5827;49.482;7.716;2023-04-06T04:15:02;7.37;;;6.03;;
11541;SDS011;5827;49.482;7.716;2023-04-06T04:17:04;9.40;;;6.20;;
11541;SDS011;5827;49.482;7.716;2023-04-06T04:19:05;8.03;;;6.50;;
11541;SDS011;5827;49.482;7.716;2023-04-06T04:21:08;7.80;;;6.40;;
11541;SDS011;5827;49.482;7.716;2023-04-06T04:23:10;8.43;;;6.40;;
11541;SDS011;5827;49.482;7.716;2023-04-06T04:25:11;10.40;;;6.77;;
11541;SDS011;5827;49.482;7.716;2023-04-06T04:27:14;7.30;;;6.20;;
11541;SDS011;5827;49.482;7.716;2023-04-06T04:29:16;7.40;;;5.97;;
11541;SDS011;5827;49.482;7.716;2023-04-06T04:31:21;7.47;;;5.93;;
11541;SDS011;5827;49.482;7.716;2023-04-06T04:33:22;8.50;;;6.10;;
11541;SDS011;5827;49.482;7.716;2023-04-06T04:35:24;12.90;;;7.30;;
11541;SDS011;5827;49.482;7.716;2023-04-06T04:37:26;8.83;;;5.87;;
11541;SDS011;5827;49.482;7.716;2023-04-06T04:39:28;8.60;;;6.53;;
11541;SDS011;5827;49.482;7.716;2023-04-06T04:41:30;7.57;;;6.50;;
11541;SDS011;5827;49.482;7.716;2023-04-06T04:43:31;9.33;;;6.90;;
11541;SDS011;5827;49.482;7.716;2023-04-06T04:45:32;11.27;;;8.13;;
11541;SDS011;5827;49.482;7.716;2023-04-06T04:47:34;8.60;;;7.50;;
11541;SDS011;5827;49.482;7.716;2023-04-06T04:49:35;8.27;;;6.43;;
11541;SDS011;5827;49.482;7.716;2023-04-06T04:51:37;9.63;;;6.93;;
11541;SDS011;5827;49.482;7.716;2023-04-06T04:53:40;9.10;;;5.70;;
11541;SDS011;5827;49.482;7.716;2023-04-06T04:55:41;7.70;;;6.10;;
11541;SDS011;5827;49.482;7.716;2023-04-06T04:57:43;8.20;;;6.57;;
11541;SDS011;5827;49.482;7.716;2023-04-06T04:59:44;8.57;;;5.93;;
11541;SDS011;5827;49.482;7.716;2023-04-06T05:01:46;7.97;;;5.87;;
11541;SDS011;5827;49.482;7.716;2023-04-06T05:03:47;9.10;;;6.80;;
11541;SDS011;5827;49.482;7.716;2023-04-06T05:05:49;11.33;;;7.70;;
11541;SDS011;5827;49.482;7.716;2023-04-06T05:07:51;14.83;;;7.57;;
11541;SDS011;5827;49.482;7.716;2023-04-06T05:09:53;10.13;;;7.30;;
11541;SDS011;5827;49.482;7.716;2023-04-06T05:11:55;9.20;;;7.60;;
11541;SDS011;5827;49.482;7.716;2023-04-06T05:13:57;9.70;;;7.43;;
11541;SDS011;5827;49.482;7.716;2023-04-06T05:15:58;9.90;;;7.63;;
11541;SDS011;5827;49.482;7.716;2023-04-06T05:18:00;9.27;;;6.90;;
11541;SDS011;5827;49.482;7.716;2023-04-06T05:20:02;10.23;;;7.30;;
11541;SDS011;5827;49.482;7.716;2023-04-06T05:22:03;9.93;;;7.30;;
11541;SDS011;5827;49.482;7.716;2023-04-06T05:24:05;10.77;;;7.30;;
11541;SDS011;5827;49.482;7.716;2023-04-06T05:26:08;11.80;;;7.57;;
11541;SDS011;5827;49.482;7.716;2023-04-06T05:28:10;9.33;;;7.67;;
11541;SDS011;5827;49.482;7.716;2023-04-06T05:30:14;10.20;;;7.80;;
11541;SDS011;5827;49.482;7.716;2023-04-06T05:32:15;12.40;;;7.90;;
11541;SDS011;5827;49.482;7.716;2023-04-06T05:34:21;9.50;;;7.70;;
11541;SDS011;5827;49.482;7.716;2023-04-06T05:36:23;10.03;;;7.30;;
11541;SDS011;5827;49.482;7.716;2023-04-06T05:38:24;14.20;;;8.60;;
11541;SDS011;5827;49.482;7.716;2023-04-06T05:40:26;11.17;;;8.10;;
11541;SDS011;5827;49.482;7.716;2023-04-06T05:42:29;10.53;;;7.93;;
11541;SDS011;5827;49.482;7.716;2023-04-06T05:44:37;10.23;;;7.43;;
11541;SDS011;5827;49.482;7.716;2023-04-06T05:46:39;12.00;;;8.20;;
11541;SDS011;5827;49.482;7.716;2023-04-06T05:48:41;13.63;;;8.53;;
11541;SDS011;5827;49.482;7.716;2023-04-06T05:50:42;12.80;;;9.10;;
11541;SDS011;5827;49.482;7.716;2023-04-06T05:52:44;13.40;;;9.63;;
11541;SDS011;5827;49.482;7.716;2023-04-06T05:54:46;11.33;;;9.13;;
11541;SDS011;5827;49.482;7.716;2023-04-06T05:56:47;14.77;;;9.70;;
11541;SDS011;5827;49.482;7.716;2023-04-06T05:58:50;14.33;;;9.47;;
11541;SDS011;5827;49.482;7.716;2023-04-06T06:00:55;14.47;;;10.13;;
11541;SDS011;5827;49.482;7.716;2023-04-06T06:02:57;14.83;;;10.40;;
11541;SDS011;5827;49.482;7.716;2023-04-06T06:04:59;15.97;;;10.13;;
11541;SDS011;5827;49.482;7.716;2023-04-06T06:07:00;14.10;;;10.10;;
11541;SDS011;5827;49.482;7.716;2023-04-06T06:09:02;14.87;;;10.33;;
11541;SDS011;5827;49.482;7.716;2023-04-06T06:11:04;12.93;;;10.40;;
11541;SDS011;5827;49.482;7.716;2023-04-06T06:13:06;16.03;;;11.00;;
11541;SDS011;5827;49.482;7.716;2023-04-06T06:15:09;13.23;;;9.97;;
11541;SDS011;5827;49.482;7.716;2023-04-06T06:17:11;12.97;;;10.10;;
11541;SDS011;5827;49.482;7.716;2023-04-06T06:19:15;14.87;;;10.23;;
11541;SDS011;5827;49.482;7.716;2023-04-06T06:21:16;16.77;;;11.00;;
11541;SDS011;5827;49.482;7.716;2023-04-06T06:23:18;15.53;;;10.47;;
11541;SDS011;5827;49.482;7.716;2023-04-06T06:25:19;13.67;;;10.20;;
11541;SDS011;5827;49.482;7.716;2023-04-06T06:27:21;12.07;;;9.83;;
11541;SDS011;5827;49.482;7.716;2023-04-06T06:29:22;13.27;;;9.77;;
11541;SDS011;5827;49.482;7.716;2023-04-06T06:31:26;12.20;;;9.87;;
11541;SDS011;5827;49.482;7.716;2023-04-06T06:33:27;12.00;;;9.87;;
11541;SDS011;5827;49.482;7.716;2023-04-06T06:35:29;12.93;;;10.17;;
11541;SDS011;5827;49.482;7.716;2023-04-06T06:37:30;10.83;;;9.37;;
11541;SDS011;5827;49.482;7.716;2023-04-06T06:39:32;12.93;;;10.47;;
11541;SDS011;5827;49.482;7.716;2023-04-06T06:41:33;14.07;;;9.87;;
11541;SDS011;5827;49.482;7.716;2023-04-06T06:43:35;11.13;;;8.97;;
11541;SDS011;5827;49.482;7.716;2023-04-06T06:45:37;12.40;;;9.50;;
11541;SDS011;5827;49.482;7.716;2023-04-06T06:47:40;11.60;;;9.83;;
11541;SDS011;5827;49.482;7.716;2023-04-06T06:49:41;11.77;;;8.97;;
11541;SDS011;5827;49.482;7.716;2023-04-06T06:51:43;10.07;;;8.33;;
11541;SDS011;5827;49.482;7.716;2023-04-06T06:53:45;9.90;;;8.40;;
11541;SDS011;5827;49.482;7.716;2023-04-06T06:55:47;12.03;;;8.53;;
11541;SDS011;5827;49.482;7.716;2023-04-06T06:57:48;8.97;;;7.83;;
11541;SDS011;5827;49.482;7.716;2023-04-06T06:59:50;12.17;;;8.07;;
11541;SDS011;5827;49.482;7.716;2023-04-06T07:01:51;10.77;;;7.67;;
11541;SDS011;5827;49.482;7.716;2023-04-06T07:03:54;9.00;;;7.50;;
11541;SDS011;5827;49.482;7.716;2023-04-06T07:05:56;8.23;;;7.43;;
11541;SDS011;5827;49.482;7.716;2023-04-06T07:07:57;11.37;;;8.10;;
11541;SDS011;5827;49.482;7.716;2023-04-06T07:09:59;8.53;;;7.17;;
11541;SDS011;5827;49.482;7.716;2023-04-06T07:12:01;11.50;;;7.53;;
11541;SDS011;5827;49.482;7.716;2023-04-06T07:14:03;8.33;;;7.03;;
11541;SDS011;5827;49.482;7.716;2023-04-06T07:16:04;9.30;;;7.00;;
11541;SDS011;5827;49.482;7.716;2023-04-06T07:18:06;13.87;;;8.63;;
11541;SDS011;5827;49.482;7.716;2023-04-06T07:20:09;9.30;;;8.13;;
11541;SDS011;5827;49.482;7.716;2023-04-06T07:22:11;11.17;;;7.80;;
11541;SDS011;5827;49.482;7.716;2023-04-06T07:24:13;9.87;;;7.37;;
11541;SDS011;5827;49.482;7.716;2023-04-06T07:26:14;8.63;;;7.23;;
11541;SDS011;5827;49.482;7.716;2023-04-06T07:28:16;7.40;;;6.63;;
11541;SDS011;5827;49.482;7.716;2023-04-06T07:30:17;9.63;;;6.70;;
11541;SDS011;5827;49.482;7.716;2023-04-06T07:32:19;8.13;;;6.80;;
11541;SDS011;5827;49.482;7.716;2023-04-06T07:34:21;7.77;;;6.73;;
11541;SDS011;5827;49.482;7.716;2023-04-06T07:36:23;9.27;;;7.57;;
11541;SDS011;5827;49.482;7.716;2023-04-06T07:38:25;7.90;;;7.10;;
11541;SDS011;5827;49.482;7.716;2023-04-06T07:40:26;12.47;;;7.93;;
11541;SDS011;5827;49.482;7.716;2023-04-06T07:42:28;14.10;;;8.70;;
11541;SDS011;5827;49.482;7.716;2023-04-06T07:44:33;9.40;;;8.23;;
11541;SDS011;5827;49.482;7.716;2023-04-06T07:46:35;12.00;;;8.57;;
11541;SDS011;5827;49.482;7.716;2023-04-06T07:48:36;11.20;;;8.07;;
11541;SDS011;5827;49.482;7.716;2023-04-06T07:50:40;13.17;;;8.43;;
11541;SDS011;5827;49.482;7.716;2023-04-06T07:52:43;9.67;;;8.00;;
11541;SDS011;5827;49.482;7.716;2023-04-06T07:54:45;9.67;;;7.70;;
11541;SDS011;5827;49.482;7.716;2023-04-06T07:56:48;11.10;;;8.33;;
11541;SDS011;5827;49.482;7.716;2023-04-06T07:58:50;10.30;;;8.23;;
11541;SDS011;5827;49.482;7.716;2023-04-06T08:00:51;12.63;;;8.63;;
11541;SDS011;5827;49.482;7.716;2023-04-06T08:02:54;8.50;;;7.60;;
11541;SDS011;5827;49.482;7.716;2023-04-06T08:04:56;12.27;;;7.50;;
11541;SDS011;5827;49.482;7.716;2023-04-06T08:06:57;10.87;;;8.53;;
11541;SDS011;5827;49.482;7.716;2023-04-06T08:09:00;10.37;;;8.20;;
11541;SDS011;5827;49.482;7.716;2023-04-06T08:11:01;9.10;;;7.40;;
11541;SDS011;5827;49.482;7.716;2023-04-06T08:13:03;10.30;;;8.43;;
11541;SDS011;5827;49.482;7.716;2023-04-06T08:15:05;10.37;;;8.77;;
11541;SDS011;5827;49.482;7.716;2023-04-06T08:17:07;10.30;;;8.60;;
11541;SDS011;5827;49.482;7.716;2023-04-06T08:19:08;11.57;;;8.17;;
11541;SDS011;5827;49.482;7.716;2023-04-06T08:21:11;14.37;;;8.97;;
11541;SDS011;5827;49.482;7.716;2023-04-06T08:23:12;10.80;;;8.83;;
11541;SDS011;5827;49.482;7.716;2023-04-06T08:25:15;13.03;;;8.83;;
11541;SDS011;5827;49.482;7.716;2023-04-06T08:27:17;10.30;;;8.13;;
11541;SDS011;5827;49.482;7.716;2023-04-06T08:29:18;14.53;;;8.83;;
11541;SDS011;5827;49.482;7.716;2023-04-06T08:31:20;11.53;;;8.20;;
11541;SDS011;5827;49.482;7.716;2023-04-06T08:33:21;10.10;;;8.33;;
11541;SDS011;5827;49.482;7.716;2023-04-06T08:35:23;11.77;;;8.70;;
11541;SDS011;5827;49.482;7.716;2023-04-06T08:37:24;9.87;;;8.27;;
11541;SDS011;5827;49.482;7.716;2023-04-06T08:39:27;11.87;;;8.53;;
11541;SDS011;5827;49.482;7.716;2023-04-06T08:41:32;10.97;;;8.60;;
11541;SDS011;5827;49.482;7.716;2023-04-06T08:43:33;12.87;;;9.10;;
11541;SDS011;5827;49.482;7.716;2023-04-06T08:45:42;11.73;;;8.53;;
11541;SDS011;5827;49.482;7.716;2023-04-06T08:47:44;11.53;;;8.30;;
11541;SDS011;5827;49.482;7.716;2023-04-06T08:49:48;11.83;;;8.10;;
11541;SDS011;5827;49.482;7.716;2023-04-06T08:51:50;9.60;;;8.60;;
11541;SDS011;5827;49.482;7.716;2023-04-06T08:53:52;12.60;;;7.80;;
11541;SDS011;5827;49.482;7.716;2023-04-06T08:55:55;11.33;;;7.90;;
11541;SDS011;5827;49.482;7.716;2023-04-06T08:58:00;10.83;;;7.87;;
11541;SDS011;5827;49.482;7.716;2023-04-06T09:00:02;9.30;;;7.50;;
11541;SDS011;5827;49.482;7.716;2023-04-06T09:02:05;9.77;;;7.00;;
11541;SDS011;5827;49.482;7.716;2023-04-06T09:04:09;12.50;;;7.67;;
11541;SDS011;5827;49.482;7.716;2023-04-06T09:06:12;12.30;;;7.13;;
11541;SDS011;5827;49.482;7.716;2023-04-06T09:08:14;15.37;;;7.30;;
11541;SDS011;5827;49.482;7.716;2023-04-06T09:10:16;12.37;;;7.40;;
11541;SDS011;5827;49.482;7.716;2023-04-06T09:12:22;9.10;;;7.27;;
11541;SDS011;5827;49.482;7.716;2023-04-06T09:14:35;9.10;;;6.70;;
11541;SDS011;5827;49.482;7.716;2023-04-06T09:16:40;9.17;;;6.90;;
11541;SDS011;5827;49.482;7.716;2023-04-06T09:18:43;9.87;;;6.43;;
11541;SDS011;5827;49.482;7.716;2023-04-06T09:20:44;8.50;;;6.07;;
11541;SDS011;5827;49.482;7.716;2023-04-06T09:22:46;8.23;;;6.10;;
11541;SDS011;5827;49.482;7.716;2023-04-06T09:24:50;7.57;;;5.97;;
11541;SDS011;5827;49.482;7.716;2023-04-06T09:26:52;10.80;;;6.70;;
11541;SDS011;5827;49.482;7.716;2023-04-06T09:28:55;8.67;;;6.50;;
11541;SDS011;5827;49.482;7.716;2023-04-06T09:30:58;9.37;;;6.83;;
11541;SDS011;5827;49.482;7.716;2023-04-06T09:33:00;8.47;;;6.23;;
11541;SDS011;5827;49.482;7.716;2023-04-06T09:35:07;8.27;;;6.90;;
11541;SDS011;5827;49.482;7.716;2023-04-06T09:37:13;9.60;;;6.50;;
11541;SDS011;5827;49.482;7.716;2023-04-06T09:39:15;8.87;;;6.27;;
11541;SDS011;5827;49.482;7.716;2023-04-06T09:41:20;9.20;;;6.60;;
11541;SDS011;5827;49.482;7.716;2023-04-06T09:43:25;9.13;;;6.57;;
11541;SDS011;5827;49.482;7.716;2023-04-06T09:45:27;7.50;;;6.67;;
11541;SDS011;5827;49.482;7.716;2023-04-06T09:47:33;8.23;;;5.97;;
11541;SDS011;5827;49.482;7.716;2023-04-06T09:49:37;8.37;;;6.43;;
11541;SDS011;5827;49.482;7.716;2023-04-06T09:51:45;8.70;;;6.77;;
11541;SDS011;5827;49.482;7.716;2023-04-06T09:53:48;10.80;;;7.37;;
11541;SDS011;5827;49.482;7.716;2023-04-06T09:55:54;9.20;;;6.77;;
11541;SDS011;5827;49.482;7.716;2023-04-06T09:58:03;8.80;;;6.10;;
11541;SDS011;5827;49.482;7.716;2023-04-06T10:00:06;8.17;;;6.00;;
11541;SDS011;5827;49.482;7.716;2023-04-06T10:02:13;8.30;;;6.33;;
11541;SDS011;5827;49.482;7.716;2023-04-06T10:04:24;9.17;;;6.27;;
11541;SDS011;5827;49.482;7.716;2023-04-06T10:06:36;8.73;;;6.47;;
11541;SDS011;5827;49.482;7.716;2023-04-06T10:08:39;9.53;;;6.23;;
11541;SDS011;5827;49.482;7.716;2023-04-06T10:10:42;8.57;;;6.10;;
11541;SDS011;5827;49.482;7.716;2023-04-06T10:12:44;8.77;;;5.93;;
11541;SDS011;5827;49.482;7.716;2023-04-06T10:14:46;8.43;;;5.97;;
11541;SDS011;5827;49.482;7.716;2023-04-06T10:16:48;8.73;;;6.00;;
11541;SDS011;5827;49.482;7.716;2023-04-06T10:18:52;8.93;;;6.50;;
11541;SDS011;5827;49.482;7.716;2023-04-06T10:21:00;7.60;;;6.40;;
11541;SDS011;5827;49.482;7.716;2023-04-06T10:23:06;8.10;;;6.13;;
11541;SDS011;5827;49.482;7.716;2023-04-06T10:25:10;9.23;;;6.53;;
11541;SDS011;5827;49.482;7.716;2023-04-06T10:27:11;8.43;;;6.00;;
11541;SDS011;5827;49.482;7.716;2023-04-06T10:29:13;11.97;;;6.50;;
11541;SDS011;5827;49.482;7.716;2023-04-06T10:31:15;6.70;;;5.93;;
11541;SDS011;5827;49.482;7.716;2023-04-06T10:33:17;9.13;;;6.30;;
11541;SDS011;5827;49.482;7.716;2023-04-06T10:35:19;7.13;;;6.20;;
11541;SDS011;5827;49.482;7.716;2023-04-06T10:37:22;7.00;;;5.73;;
11541;SDS011;5827;49.482;7.716;2023-04-06T10:39:24;8.00;;;5.67;;
11541;SDS011;5827;49.482;7.716;2023-04-06T10:41:31;7.83;;;5.90;;
11541;SDS011;5827;49.482;7.716;2023-04-06T10:43:35;9.13;;;6.43;;
11541;SDS011;5827;49.482;7.716;2023-04-06T10:45:37;9.40;;;6.07;;
11541;SDS011;5827;49.482;7.716;2023-04-06T10:47:40;6.87;;;6.17;;
11541;SDS011;5827;49.482;7.716;2023-04-06T10:49:41;7.17;;;5.90;;
11541;SDS011;5827;49.482;7.716;2023-04-06T10:51:43;8.73;;;5.93;;
11541;SDS011;5827;49.482;7.716;2023-04-06T10:53:46;6.97;;;6.20;;
11541;SDS011;5827;49.482;7.716;2023-04-06T10:55:49;7.73;;;5.90;;
11541;SDS011;5827;49.482;7.716;2023-04-06T10:57:51;6.60;;;5.83;;
11541;SDS011;5827;49.482;7.716;2023-04-06T10:59:53;6.73;;;5.80;;
11541;SDS011;5827;49.482;7.716;2023-04-06T11:01:54;8.13;;;6.20;;
11541;SDS011;5827;49.482;7.716;2023-04-06T11:03:56;8.07;;;6.10;;
11541;SDS011;5827;49.482;7.716;2023-04-06T11:05:59;6.77;;;5.70;;
11541;SDS011;5827;49.482;7.716;2023-04-06T11:08:00;7.43;;;5.73;;
11541;SDS011;5827;49.482;7.716;2023-04-06T11:10:04;8.23;;;5.90;;
11541;SDS011;5827;49.482;7.716;2023-04-06T11:12:06;8.93;;;6.50;;
11541;SDS011;5827;49.482;7.716;2023-04-06T11:14:09;7.30;;;5.50;;
11541;SDS011;5827;49.482;7.716;2023-04-06T11:16:14;7.43;;;5.53;;
11541;SDS011;5827;49.482;7.716;2023-04-06T11:18:17;6.03;;;5.43;;
11541;SDS011;5827;49.482;7.716;2023-04-06T11:20:18;7.73;;;5.40;;
11541;SDS011;5827;49.482;7.716;2023-04-06T11:22:20;6.37;;;5.53;;
11541;SDS011;5827;49.482;7.716;2023-04-06T11:24:22;8.67;;;5.70;;
11541;SDS011;5827;49.482;7.716;2023-04-06T11:26:26;6.23;;;5.30;;
11541;SDS011;5827;49.482;7.716;2023-04-06T11:28:28;9.20;;;4.83;;
11541;SDS011;5827;49.482;7.716;2023-04-06T11:30:30;6.70;;;5.40;;
11541;SDS011;5827;49.482;7.716;2023-04-06T11:32:38;7.13;;;5.70;;
11541;SDS011;5827;49.482;7.716;2023-04-06T11:34:40;7.30;;;5.60;;
11541;SDS011;5827;49.482;7.716;2023-04-06T11:36:42;6.67;;;5.60;;
11541;SDS011;5827;49.482;7.716;2023-04-06T11:38:45;7.30;;;5.70;;
11541;SDS011;5827;49.482;7.716;2023-04-06T11:40:46;7.40;;;5.33;;
11541;SDS011;5827;49.482;7.716;2023-04-06T11:42:55;6.87;;;5.40;;
11541;SDS011;5827;49.482;7.716;2023-04-06T11:44:57;5.57;;;4.73;;
11541;SDS011;5827;49.482;7.716;2023-04-06T11:47:00;6.00;;;5.40;;
11541;SDS011;5827;49.482;7.716;2023-04-06T11:49:02;7.37;;;5.93;;
11541;SDS011;5827;49.482;7.716;2023-04-06T11:51:04;8.53;;;5.77;;
11541;SDS011;5827;49.482;7.716;2023-04-06T11:53:06;8.13;;;5.60;;
11541;SDS011;5827;49.482;7.716;2023-04-06T11:55:12;8.10;;;5.97;;
11541;SDS011;5827;49.482;7.716;2023-04-06T11:57:15;7.20;;;5.67;;
11541;SDS011;5827;49.482;7.716;2023-04-06T11:59:19;9.00;;;6.70;;
11541;SDS011;5827;49.482;7.716;2023-04-06T12:01:21;8.30;;;6.10;;
11541;SDS011;5827;49.482;7.716;2023-04-06T12:03:23;9.47;;;6.77;;
11541;SDS011;5827;49.482;7.716;2023-04-06T12:05:24;9.87;;;6.40;;
11541;SDS011;5827;49.482;7.716;2023-04-06T12:07:26;9.50;;;6.80;;
11541;SDS011;5827;49.482;7.716;2023-04-06T12:09:27;9.47;;;7.20;;
11541;SDS011;5827;49.482;7.716;2023-04-06T12:11:29;8.10;;;5.93;;
11541;SDS011;5827;49.482;7.716;2023-04-06T12:13:31;8.13;;;5.90;;
11541;SDS011;5827;49.482;7.716;2023-04-06T12:15:34;8.67;;;6.00;;
11541;SDS011;5827;49.482;7.716;2023-04-06T12:17:35;8.27;;;5.80;;
11541;SDS011;5827;49.482;7.716;2023-04-06T12:19:37;8.40;;;5.80;;
11541;SDS011;5827;49.482;7.716;2023-04-06T12:21:39;9.43;;;6.07;;
11541;SDS011;5827;49.482;7.716;2023-04-06T12:23:40;8.20;;;6.60;;
11541;SDS011;5827;49.482;7.716;2023-04-06T12:25:42;8.80;;;6.33;;